Terminal Aerodrome Forecast
Issued by NWS Knoxville/Tri Cities, TN

Home | Current Version | Previous Version | Text Only | Print | Product List | Glossary On
Versions: 1 2 3 4 5 6 7 8 9 10 11 12 13 14 15 16 17 18 19 20
000
FTUS44 KMRX 200240 AAB
TAFCHA
TAF AMD
KCHA 200240Z 2003/2024 VRB04KT 4SM -RA BR SCT030 BKN040
      TEMPO 2003/2007 1SM RA BR BKN028
     FM200700 18003KT 3SM -RA BR OVC016
     FM201400 19003KT P6SM VCSH SCT010 OVC024
     FM201800 19006KT P6SM SCT030 BKN050=

USA.gov is the U.S. government's official web portal to all federal, state and local government web resources and services.